Alpena, AR

2:06 AM CST on March 06, 2015 (GMT -0600)
APRSWXNET Capps AR US | Change Station
CLOSE
Current Station
Personal Weather Station
Location: Harrison, AR
Elevation: 1479 ft
Nearby Weather Stations
Active Advisory: Special Statement Active Notice: Local Storm Report

Elev 1479 ft 36.24 °N, 93.20 °W | Updated 33 minutes ago

Clear
Clear
19 °F
Feels Like 19 °F
N
0
Wind Variable Wind from NNE
Gusts 6.0 mph

Today
High -- | Low -- °F
--% Chance of Precip.
Yesterday
High -- | Low -- °F
Precip. -- in
6:36 AM 6:12 PM
Full, 100% visible
Pressure 30.55 in
Visibility 10.0 miles
Clouds Clear
Windchill 19 °F
Dew Point 10 °F
Humidity 68%
Rainfall in
Snow Depth Not available.
UV 0 out of 12
Pollen 1.80 out of 12
Air Quality Not available.
Flu Activity Not available.
METAR KHRO 060753Z AUTO 13004KT 10SM CLR M08/M11 A3050 RMK AO2 SLP344 T10831111

More Conditions Fewer Conditions

Pressure 30.55 in
Visibility 10.0 miles
Clouds Clear
Windchill 19 °F
Dew Point 10 °F
Humidity 68%
Rainfall in
Snow Depth Not available.
UV 0 out of 12
Pollen 1.80 out of 12
Air Quality Not available.
Flu Activity Not available.
METAR KHRO 060753Z AUTO 13004KT 10SM CLR M08/M11 A3050 RMK AO2 SLP344 T10831111

More Conditions Fewer Conditions

10-Day Weather Forecast

Almanac

Astronomy

Mar. 06, 2015 Rise Set
Actual Time
Civil Twilight
Nautical Twilight
Astronomical Twilight
Moon
Length of Visible Light
Length of Day
Tomorrow will be .
, % of the Moon is Illuminated

Today's Extremes

State Highs State Lows

Community

WunderPhotos

Upload Photos

1,803,199 photos uploaded!

WunderBlogs® & News

Nearby

Air Quality

  Air Quality AQ Index Pollutant
Not available.

Snow Depth

Station Depth Elevation

Earthquake Activity

City Distance Mag. Time & Date
Minimum magnitude displayed is 2.5.

Coastal Water Temperatures

Place Temperature

Nearby Weather Stations

Special Statement
Statement as of 3:51 PM CST on March 05, 2015

... Near record low temperatures expected tonight...

In the wake of our latest winter event... full sunshine and an
increasingly strong sun angle allowed for considerable melting
on area roadways.

However... temperatures tonight are expected to plunge to well
below freezing and will approach record lows in many areas. This
will allow any water... slush or snow remaining on area roads to
freeze creating icy and dangerous travel conditions.

Additional melting will occur on Friday with another day of full
sunshine and temperatures a few degrees warmer than what was seen
on Thursday. Highs are expected to top out in the mid 30s to mid
40s with the coldest temperatures occurring where the snow pack is
the deepest.

Please exercise extreme caution if you must travel tonight and
especially around sunrise when temperatures will be at their
lowest. Allow plenty of time to reach your destination safely.


56